createdAt,value
2023-03-22T00:01:34.917Z,99239.81
2023-03-22T00:04:02.486Z,99246.84
2023-03-22T00:06:30.079Z,99246.84
2023-03-22T00:08:57.550Z,99240.81
2023-03-22T00:11:25.930Z,99241.56
2023-03-22T00:13:55.033Z,99240.47
2023-03-22T00:16:22.830Z,99244.72
2023-03-22T00:18:50.464Z,99247.53
2023-03-22T00:21:18.252Z,99243.25
2023-03-22T00:23:46.066Z,99246.63
2023-03-22T00:26:14.663Z,99250.97
2023-03-22T00:28:43.841Z,99242.22
2023-03-22T00:31:11.498Z,99247.38
2023-03-22T00:33:39.053Z,99249.94
2023-03-22T00:36:09.177Z,99249.88
2023-03-22T00:38:42.869Z,99254.28
2023-03-22T00:41:16.306Z,99261.13
2023-03-22T00:43:47.136Z,99258.34
2023-03-22T00:46:16.101Z,99267.09
2023-03-22T00:48:44.360Z,99272.22
2023-03-22T00:51:12.531Z,99262.66
2023-03-22T00:53:43.090Z,99272.94
2023-03-22T00:56:15.980Z,99278.13
2023-03-22T00:59:06.404Z,99265.25
2023-03-22T01:01:34.027Z,99277.16
2023-03-22T01:04:03.502Z,99278.91
2023-03-22T01:06:32.834Z,99278.84
2023-03-22T01:09:00.641Z,99292.31
2023-03-22T01:11:28.616Z,99287.19
2023-03-22T01:13:56.143Z,99297.41
2023-03-22T01:16:23.863Z,99295.53
2023-03-22T01:18:51.497Z,99299.63
2023-03-22T01:21:19.066Z,99297.03
2023-03-22T01:23:47.263Z,99291.66
2023-03-22T01:26:14.857Z,99298.66
2023-03-22T01:28:42.563Z,99304.59
2023-03-22T01:31:10.162Z,99308.00
2023-03-22T01:33:38.014Z,99298.44
2023-03-22T01:36:06.063Z,99309.50
2023-03-22T01:38:35.235Z,99319.19
2023-03-22T01:41:03.024Z,99330.22
2023-03-22T01:43:34.124Z,99331.81
2023-03-22T01:46:02.294Z,99333.63
2023-03-22T01:48:46.315Z,99323.34
2023-03-22T01:51:25.371Z,99338.59
2023-03-22T01:54:21.019Z,99336.63
2023-03-22T01:56:50.349Z,99337.38
2023-03-22T01:59:28.952Z,99340.69
2023-03-22T02:02:22.220Z,99344.44
2023-03-22T02:04:58.240Z,99340.75
2023-03-22T02:07:31.891Z,99344.38
2023-03-22T02:10:01.819Z,99346.84
2023-03-22T02:13:09.555Z,99342.28
2023-03-22T02:15:49.651Z,99341.88
2023-03-22T02:19:05.578Z,99343.84
2023-03-22T02:21:57.166Z,99358.53
2023-03-22T02:25:06.342Z,99357.59
2023-03-22T02:27:58.629Z,99358.34
2023-03-22T02:30:57.390Z,99361.91
2023-03-22T02:33:35.910Z,99367.53
2023-03-22T02:36:37.975Z,99367.94
2023-03-22T02:39:20.132Z,99372.00
2023-03-22T02:41:53.728Z,99362.31
2023-03-22T02:44:43.422Z,99374.69
2023-03-22T02:47:24.825Z,99377.22
2023-03-22T02:50:07.416Z,99381.28
2023-03-22T02:52:54.431Z,99386.63
2023-03-22T02:55:39.043Z,99381.34
2023-03-22T02:58:19.002Z,99394.97
2023-03-22T03:00:51.160Z,99399.16
2023-03-22T03:03:21.203Z,99397.19
2023-03-22T03:05:55.686Z,99397.91
2023-03-22T03:08:25.428Z,99401.06
2023-03-22T03:10:53.933Z,99399.03
2023-03-22T03:13:21.874Z,99411.88
2023-03-22T03:15:54.513Z,99411.06
2023-03-22T03:18:46.362Z,99414.63
2023-03-22T03:21:17.167Z,99413.31
2023-03-22T03:24:07.056Z,99408.88
2023-03-22T03:26:58.782Z,99409.31
2023-03-22T03:30:01.471Z,99422.19
2023-03-22T03:32:48.177Z,99423.88
2023-03-22T03:35:57.370Z,99427.53
2023-03-22T03:38:27.610Z,99432.34
2023-03-22T03:41:05.122Z,99433.09
2023-03-22T03:43:34.543Z,99433.53
2023-03-22T03:46:02.575Z,99429.31
2023-03-22T03:48:33.482Z,99444.75
2023-03-22T03:51:02.577Z,99441.31
2023-03-22T03:53:31.105Z,99441.38
2023-03-22T03:55:59.024Z,99447.47
2023-03-22T03:58:32.956Z,99451.03
2023-03-22T04:01:00.593Z,99445.84
2023-03-22T04:03:50.842Z,99443.38
2023-03-22T04:06:34.796Z,99457.94
2023-03-22T04:09:09.010Z,99461.22
2023-03-22T04:11:41.400Z,99465.53
2023-03-22T04:14:09.136Z,99453.38
2023-03-22T04:16:36.664Z,99460.22
2023-03-22T04:19:04.946Z,99469.81
2023-03-22T04:21:33.057Z,99467.22
2023-03-22T04:24:02.430Z,99464.47
2023-03-22T04:26:35.577Z,99469.63
2023-03-22T04:29:26.522Z,99470.44
2023-03-22T04:31:59.876Z,99479.16
2023-03-22T04:34:37.250Z,99480.25
2023-03-22T04:37:10.295Z,99479.38
2023-03-22T04:39:44.747Z,99498.28
2023-03-22T04:42:30.990Z,99492.34
2023-03-22T04:45:07.437Z,99496.69
2023-03-22T04:47:37.394Z,99501.84
2023-03-22T04:50:08.109Z,99507.16
2023-03-22T04:52:43.030Z,99503.59
2023-03-22T04:55:11.355Z,99520.78
2023-03-22T04:57:39.931Z,99526.56
2023-03-22T05:00:11.058Z,99518.84
2023-03-22T05:02:41.482Z,99524.84
2023-03-22T05:05:16.565Z,99522.22
2023-03-22T05:07:45.436Z,99521.91
2023-03-22T05:10:15.034Z,99523.59
2023-03-22T05:12:44.189Z,99529.50
2023-03-22T05:15:22.299Z,99538.84
2023-03-22T05:17:51.895Z,99539.72
2023-03-22T05:20:22.451Z,99544.81
2023-03-22T05:23:02.836Z,99539.72
2023-03-22T05:25:32.612Z,99556.19
2023-03-22T05:28:01.762Z,99546.94
2023-03-22T05:30:37.548Z,99552.84
2023-03-22T05:33:23.663Z,99553.91
2023-03-22T05:35:55.168Z,99566.69
2023-03-22T05:38:23.400Z,99563.94
2023-03-22T05:40:53.641Z,99573.47
2023-03-22T05:43:21.493Z,99577.63
2023-03-22T05:45:51.473Z,99576.75
2023-03-22T05:48:39.192Z,99579.97
2023-03-22T05:51:17.620Z,99592.09
2023-03-22T05:53:48.649Z,99587.78
2023-03-22T05:56:24.405Z,99598.81
2023-03-22T05:58:59.928Z,99609.38
2023-03-22T06:01:27.636Z,99604.19
2023-03-22T06:04:11.067Z,99614.41
2023-03-22T06:06:53.975Z,99606.97
2023-03-22T06:09:34.954Z,99618.06
2023-03-22T06:12:05.965Z,99610.53
2023-03-22T06:14:33.541Z,99618.94
2023-03-22T06:17:09.916Z,99619.50
2023-03-22T06:19:37.515Z,99625.34
2023-03-22T06:22:09.183Z,99619.06
2023-03-22T06:24:40.655Z,99631.19
2023-03-22T06:27:10.961Z,99632.38
2023-03-22T06:29:41.201Z,99634.31
2023-03-22T06:32:09.317Z,99638.84
2023-03-22T06:34:37.116Z,99627.56
2023-03-22T06:37:05.765Z,99623.84
2023-03-22T06:39:37.295Z,99628.22
2023-03-22T06:42:04.904Z,99623.00
2023-03-22T06:44:33.206Z,99612.38
2023-03-22T06:47:13.792Z,99622.63
2023-03-22T06:49:59.965Z,99624.47
2023-03-22T06:52:40.654Z,99627.59
2023-03-22T06:55:09.499Z,99620.75
2023-03-22T06:57:37.152Z,99620.13
2023-03-22T07:00:05.420Z,99617.44
2023-03-22T07:02:33.195Z,99620.06
2023-03-22T07:05:29.327Z,99623.88
2023-03-22T07:07:57.235Z,99619.75
2023-03-22T07:10:26.869Z,99612.25
2023-03-22T07:12:54.530Z,99607.91
2023-03-22T07:15:24.826Z,99609.31
2023-03-22T07:18:04.230Z,99602.09
2023-03-22T07:20:37.157Z,99600.47
2023-03-22T07:23:06.152Z,99599.38
2023-03-22T07:25:40.534Z,99606.88
2023-03-22T07:28:29.475Z,99604.66
2023-03-22T07:31:06.186Z,99617.50
2023-03-22T07:33:44.711Z,99623.56
2023-03-22T07:36:12.987Z,99625.56
2023-03-22T07:38:40.622Z,99622.28
2023-03-22T07:41:13.443Z,99629.28
2023-03-22T07:44:18.062Z,99629.97
2023-03-22T07:47:09.327Z,99644.06
2023-03-22T07:49:57.050Z,99643.94
2023-03-22T07:52:31.556Z,99645.13
2023-03-22T07:54:59.405Z,99642.47
2023-03-22T07:57:27.066Z,99641.13
2023-03-22T07:59:58.972Z,99633.16
2023-03-22T08:02:46.209Z,99640.72
2023-03-22T08:06:04.901Z,99651.00
2023-03-22T08:08:38.623Z,99661.34
2023-03-22T08:11:07.850Z,99655.47
2023-03-22T08:13:36.319Z,99647.94
2023-03-22T08:16:04.983Z,99651.16
2023-03-22T08:18:33.106Z,99652.69
2023-03-22T08:21:01.032Z,99657.25
2023-03-22T08:23:41.436Z,99647.28
2023-03-22T08:26:29.579Z,99651.41
2023-03-22T08:29:03.643Z,99648.03
2023-03-22T08:31:34.757Z,99648.75
2023-03-22T08:34:02.245Z,99663.84
2023-03-22T08:36:29.817Z,99657.88
2023-03-22T08:39:01.666Z,99668.56
2023-03-22T08:41:51.831Z,99672.38
2023-03-22T08:44:19.441Z,99656.53
2023-03-22T08:46:47.106Z,99667.31
2023-03-22T08:49:15.146Z,99668.69
2023-03-22T08:51:48.836Z,99663.22
2023-03-22T08:54:19.678Z,99658.03
2023-03-22T08:56:53.155Z,99668.19
2023-03-22T08:59:46.691Z,99666.22
2023-03-22T09:02:35.780Z,99664.41
2023-03-22T09:05:04.503Z,99666.16
2023-03-22T09:07:32.797Z,99661.41
2023-03-22T09:10:08.880Z,99655.59
2023-03-22T09:12:39.916Z,99659.31
2023-03-22T09:15:08.540Z,99657.53
2023-03-22T09:17:38.727Z,99669.69
2023-03-22T09:20:12.811Z,99657.56
2023-03-22T09:22:43.070Z,99659.84
2023-03-22T09:25:13.551Z,99659.25
2023-03-22T09:27:44.143Z,99648.81
2023-03-22T09:30:11.988Z,99652.69
2023-03-22T09:32:42.127Z,99654.47
2023-03-22T09:35:12.403Z,99649.28
2023-03-22T09:37:53.451Z,99646.94
2023-03-22T09:40:32.951Z,99639.81
2023-03-22T09:43:06.198Z,99654.69
2023-03-22T09:45:39.730Z,99657.66
2023-03-22T09:48:21.213Z,99662.28
2023-03-22T09:50:52.589Z,99664.78
2023-03-22T09:53:22.711Z,99658.84
2023-03-22T09:56:11.051Z,99664.47
2023-03-22T09:58:50.495Z,99674.31
2023-03-22T10:01:31.557Z,99668.38
2023-03-22T10:04:13.405Z,99667.59
2023-03-22T10:06:49.371Z,99676.06
2023-03-22T10:09:54.908Z,99678.06
2023-03-22T10:12:30.573Z,99680.34
2023-03-22T10:15:03.912Z,99680.88
2023-03-22T10:17:31.870Z,99688.56
2023-03-22T10:20:05.498Z,99684.31
2023-03-22T10:22:39.068Z,99676.91
2023-03-22T10:25:09.707Z,99674.84
2023-03-22T10:27:37.721Z,99677.03
2023-03-22T10:30:25.436Z,99679.41
2023-03-22T10:32:58.374Z,99683.81
2023-03-22T10:35:26.495Z,99678.97
2023-03-22T10:37:58.096Z,99671.06
2023-03-22T10:40:36.461Z,99670.56
2023-03-22T10:43:13.107Z,99669.44
2023-03-22T10:45:41.582Z,99663.44
2023-03-22T10:48:19.604Z,99668.03
2023-03-22T10:50:48.474Z,99663.53
2023-03-22T10:53:28.919Z,99658.25
2023-03-22T10:55:56.744Z,99666.94
2023-03-22T10:58:31.533Z,99681.13
2023-03-22T11:01:05.375Z,99677.97
2023-03-22T11:03:38.484Z,99672.84
2023-03-22T11:06:18.061Z,99674.44
2023-03-22T11:08:52.885Z,99672.25
2023-03-22T11:11:24.934Z,99680.09
2023-03-22T11:14:11.997Z,99671.34
2023-03-22T11:16:53.284Z,99674.25
2023-03-22T11:19:42.407Z,99682.38
2023-03-22T11:22:42.581Z,99681.97
2023-03-22T11:25:27.117Z,99672.94
2023-03-22T11:28:06.426Z,99676.19
2023-03-22T11:30:36.108Z,99677.25
2023-03-22T11:33:19.729Z,99671.84
2023-03-22T11:35:54.273Z,99678.03
2023-03-22T11:38:30.758Z,99673.28
2023-03-22T11:41:04.942Z,99680.38
2023-03-22T11:43:48.526Z,99672.59
2023-03-22T11:46:19.486Z,99676.81
2023-03-22T11:48:50.610Z,99672.59
2023-03-22T11:51:35.227Z,99677.00
2023-03-22T11:54:19.542Z,99679.28
2023-03-22T11:56:49.183Z,99677.44
2023-03-22T11:59:24.354Z,99675.69
2023-03-22T12:02:21.770Z,99680.28
2023-03-22T12:04:53.951Z,99663.88
2023-03-22T12:07:24.694Z,99672.78
2023-03-22T12:10:02.045Z,99672.69
2023-03-22T12:12:40.477Z,99658.50
2023-03-22T12:15:19.888Z,99669.16
2023-03-22T12:17:56.670Z,99672.28
2023-03-22T12:20:56.457Z,99666.31
2023-03-22T12:23:28.129Z,99662.88
2023-03-22T12:26:13.113Z,99658.94
2023-03-22T12:28:50.131Z,99664.09
2023-03-22T12:31:31.856Z,99656.88
2023-03-22T12:34:19.606Z,99659.78
2023-03-22T12:36:53.521Z,99656.88
2023-03-22T12:39:46.333Z,99648.06
2023-03-22T12:42:22.104Z,99652.03
2023-03-22T12:45:04.181Z,99639.16
2023-03-22T12:47:41.910Z,99653.22
2023-03-22T12:50:40.994Z,99655.81
2023-03-22T12:53:16.488Z,99645.91
2023-03-22T12:55:46.866Z,99641.38
2023-03-22T12:58:25.944Z,99643.59
2023-03-22T13:01:08.101Z,99649.59
2023-03-22T13:03:40.347Z,99647.47
2023-03-22T13:06:31.200Z,99645.16
2023-03-22T13:09:08.960Z,99643.41
2023-03-22T13:11:36.790Z,99636.59
2023-03-22T13:14:04.357Z,99626.09
2023-03-22T13:16:52.088Z,99636.56
2023-03-22T13:19:45.548Z,99642.50
2023-03-22T13:22:22.031Z,99643.78
2023-03-22T13:25:01.426Z,99643.16
2023-03-22T13:27:38.074Z,99643.94
2023-03-22T13:30:15.426Z,99651.78
2023-03-22T13:33:14.522Z,99656.81
2023-03-22T13:35:55.172Z,99651.09
2023-03-22T13:38:27.733Z,99643.47
2023-03-22T13:41:09.216Z,99641.19
2023-03-22T13:43:50.488Z,99635.81
2023-03-22T13:46:19.974Z,99640.13
2023-03-22T13:48:48.405Z,99626.03
2023-03-22T13:51:22.649Z,99639.97
2023-03-22T13:53:53.255Z,99631.16
2023-03-22T13:56:42.228Z,99637.41
2023-03-22T13:59:28.034Z,99633.44
2023-03-22T14:02:18.570Z,99627.53
2023-03-22T14:04:58.740Z,99629.63
2023-03-22T14:07:26.276Z,99626.66
2023-03-22T14:09:57.923Z,99616.25
2023-03-22T14:12:36.724Z,99621.09
2023-03-22T14:15:21.637Z,99624.56
